Time;durP1;ratioP1;P1;durP2;ratioP2;P2;SDS_P1;SDS_P2;PMS_P1;PMS_P2;Temp;Humidity;BMP_temperature;BMP_pressure;BME280_temperature;BME280_humidity;BME280_pressure;Samples;Min_cycle;Max_cycle;Signal;HPM_P1;HPM_P2
2021/09/01 00:01:52;;;;;;;8.10;7.10;;;11.40;99.90;;;;;;6264944;22;20790;-87
2021/09/01 00:04:18;;;;;;;7.97;7.30;;;11.40;99.90;;;;;;6262889;22;20421;-87
2021/09/01 00:06:43;;;;;;;8.33;7.53;;;11.40;99.90;;;;;;6263816;22;20616;-87
2021/09/01 00:09:09;;;;;;;8.63;7.90;;;11.40;99.90;;;;;;6264235;22;20174;-87
2021/09/01 00:11:35;;;;;;;8.87;7.97;;;11.40;99.90;;;;;;6260643;22;20481;-87
2021/09/01 00:14:01;;;;;;;9.17;8.13;;;11.40;99.90;;;;;;6264300;22;20162;-87
2021/09/01 00:16:27;;;;;;;8.43;7.60;;;11.40;99.90;;;;;;6262358;22;20227;-87
2021/09/01 00:18:58;;;;;;;8.93;8.13;;;11.40;99.90;;;;;;6238678;22;20190;-87
2021/09/01 00:21:33;;;;;;;9.03;8.00;;;11.40;99.90;;;;;;6263065;22;20624;-87
2021/09/01 00:24:00;;;;;;;9.00;7.17;;;11.40;99.90;;;;;;6263540;22;20945;-86
2021/09/01 00:26:26;;;;;;;8.87;7.97;;;11.30;99.90;;;;;;6263662;22;20397;-86
2021/09/01 00:29:04;;;;;;;10.60;8.33;;;11.20;99.90;;;;;;6260359;22;20388;-86
2021/09/01 00:31:30;;;;;;;9.40;8.43;;;11.10;99.90;;;;;;6289631;22;20399;-86
2021/09/01 00:33:55;;;;;;;8.57;7.70;;;11.10;99.90;;;;;;6264683;22;20468;-86
2021/09/01 00:36:22;;;;;;;7.70;7.03;;;11.00;99.90;;;;;;6265730;22;20459;-86
2021/09/01 00:38:48;;;;;;;9.27;8.37;;;11.00;99.90;;;;;;6265282;22;20440;-87
2021/09/01 00:41:25;;;;;;;9.13;7.97;;;11.10;99.90;;;;;;6238731;22;20165;-87
2021/09/01 00:44:14;;;;;;;8.57;7.77;;;11.20;99.90;;;;;;6265849;22;20400;-88
2021/09/01 00:46:46;;;;;;;9.07;8.23;;;11.30;99.90;;;;;;6262184;22;20418;-88
2021/09/01 00:49:13;;;;;;;9.37;8.47;;;11.30;99.90;;;;;;6266052;22;20726;-88
2021/09/01 00:51:48;;;;;;;8.47;7.60;;;11.30;99.90;;;;;;6264370;22;20397;-88
2021/09/01 00:54:23;;;;;;;9.23;8.43;;;11.50;99.90;;;;;;6266195;22;20376;-87
2021/09/01 00:56:54;;;;;;;8.70;7.90;;;11.50;99.90;;;;;;6264340;22;20961;-88
2021/09/01 00:59:22;;;;;;;8.17;6.97;;;11.50;99.90;;;;;;6263511;22;20392;-87
2021/09/01 01:01:48;;;;;;;8.70;7.80;;;11.40;99.90;;;;;;6264048;22;20384;-87
2021/09/01 01:04:14;;;;;;;9.43;8.53;;;11.30;99.90;;;;;;6264395;22;20388;-87
2021/09/01 01:06:43;;;;;;;8.07;7.30;;;11.20;99.90;;;;;;6264836;22;20203;-87
2021/09/01 01:09:12;;;;;;;9.10;8.30;;;11.10;99.90;;;;;;6264169;22;20784;-87
2021/09/01 01:11:57;;;;;;;8.20;7.40;;;11.00;99.90;;;;;;6265451;22;20387;-87
2021/09/01 01:14:22;;;;;;;8.53;7.73;;;11.00;99.90;;;;;;6265776;22;20393;-87
2021/09/01 01:16:48;;;;;;;9.00;8.20;;;11.00;99.90;;;;;;6267324;22;20722;-86
2021/09/01 01:19:16;;;;;;;8.20;7.40;;;11.00;99.90;;;;;;6257266;22;20209;-87
2021/09/01 01:21:41;;;;;;;9.40;8.40;;;10.90;99.90;;;;;;6207929;23;20229;-87
2021/09/01 01:24:07;;;;;;;8.17;7.47;;;10.90;99.90;;;;;;6207976;23;20861;-87
2021/09/01 01:26:33;;;;;;;8.00;7.27;;;10.90;99.90;;;;;;6209182;23;20174;-87
2021/09/01 01:29:03;;;;;;;8.17;7.47;;;10.90;99.90;;;;;;6236442;23;20154;-87
2021/09/01 01:31:29;;;;;;;8.13;7.33;;;10.80;99.90;;;;;;6236214;23;20163;-86
2021/09/01 01:33:56;;;;;;;7.43;6.73;;;10.80;99.90;;;;;;6209715;23;21501;-86
2021/09/01 01:36:22;;;;;;;7.90;7.20;;;10.80;99.90;;;;;;6232333;23;20685;-86
2021/09/01 01:38:48;;;;;;;8.53;7.73;;;10.80;99.90;;;;;;6208591;23;20402;-86
2021/09/01 01:41:13;;;;;;;10.27;8.87;;;10.80;99.90;;;;;;6206959;23;20489;-87
2021/09/01 01:43:43;;;;;;;9.67;8.67;;;10.70;99.90;;;;;;6209141;23;20217;-87
2021/09/01 01:46:08;;;;;;;9.00;8.10;;;10.80;99.90;;;;;;6208399;23;20245;-87
2021/09/01 01:48:34;;;;;;;8.90;8.00;;;10.70;99.90;;;;;;6234190;23;20410;-87
2021/09/01 01:51:01;;;;;;;10.13;9.23;;;10.70;99.90;;;;;;6206835;23;20159;-86
2021/09/01 01:53:27;;;;;;;8.40;7.60;;;10.70;99.90;;;;;;6234499;23;20476;-86
2021/09/01 01:55:55;;;;;;;11.63;9.20;;;10.80;99.90;;;;;;6234388;23;20382;-87
2021/09/01 01:58:21;;;;;;;10.73;8.73;;;11.00;99.90;;;;;;6207946;23;20441;-86
2021/09/01 02:00:47;;;;;;;10.17;9.17;;;11.10;99.90;;;;;;6234515;23;20745;-86
2021/09/01 02:03:14;;;;;;;9.70;8.80;;;11.10;99.90;;;;;;6208935;23;20183;-86
2021/09/01 02:05:40;;;;;;;10.27;8.43;;;11.10;99.90;;;;;;6206697;23;20389;-86
2021/09/01 02:08:06;;;;;;;10.50;9.47;;;11.10;99.90;;;;;;6236040;23;20860;-86
2021/09/01 02:10:32;;;;;;;9.73;8.73;;;11.00;99.90;;;;;;6207136;23;20194;-87
2021/09/01 02:12:58;;;;;;;8.80;8.00;;;11.00;99.90;;;;;;6208202;23;20166;-87
2021/09/01 02:15:23;;;;;;;9.33;8.50;;;11.10;99.90;;;;;;6235121;23;20852;-87
2021/09/01 02:17:49;;;;;;;9.43;8.53;;;11.10;99.90;;;;;;6209159;23;20954;-87
2021/09/01 02:20:16;;;;;;;9.43;8.50;;;11.10;99.90;;;;;;6230514;22;20566;-87
2021/09/01 02:22:43;;;;;;;7.43;6.73;;;11.10;99.90;;;;;;6263644;22;20192;-87
2021/09/01 02:25:11;;;;;;;7.70;6.90;;;11.00;99.90;;;;;;6267024;22;20388;-88
2021/09/01 02:27:37;;;;;;;9.00;6.30;;;10.80;99.90;;;;;;6267444;22;20718;-87
2021/09/01 02:30:04;;;;;;;9.20;6.53;;;10.70;99.90;;;;;;6237377;22;20928;-87
2021/09/01 02:32:30;;;;;;;6.87;6.20;;;10.70;99.90;;;;;;6265199;22;20408;-86
2021/09/01 02:34:56;;;;;;;7.53;6.73;;;10.70;99.90;;;;;;6264999;22;20393;-87
2021/09/01 02:37:22;;;;;;;6.97;6.27;;;10.60;99.90;;;;;;6266356;22;20648;-87
2021/09/01 02:39:48;;;;;;;7.20;6.50;;;10.50;99.90;;;;;;6265609;22;20524;-87
2021/09/01 02:42:13;;;;;;;7.37;6.63;;;10.60;99.90;;;;;;6266466;22;20162;-87
2021/09/01 02:44:39;;;;;;;6.90;6.30;;;10.50;99.90;;;;;;6266683;22;20150;-87
2021/09/01 02:47:05;;;;;;;7.23;6.53;;;10.50;99.90;;;;;;6239514;22;20600;-86
2021/09/01 02:49:31;;;;;;;6.63;6.03;;;10.40;99.90;;;;;;6262892;22;20477;-87
2021/09/01 02:51:59;;;;;;;6.90;6.30;;;10.30;99.90;;;;;;6265215;22;20165;-87
2021/09/01 02:54:25;;;;;;;5.77;5.27;;;10.30;99.90;;;;;;6266551;22;20201;-86
2021/09/01 02:56:50;;;;;;;5.90;5.40;;;10.30;99.90;;;;;;6240742;22;20429;-86
2021/09/01 02:59:16;;;;;;;7.43;6.40;;;10.30;99.90;;;;;;6263689;22;20257;-86
2021/09/01 03:01:42;;;;;;;7.57;6.80;;;10.30;99.90;;;;;;6264970;22;20157;-86
2021/09/01 03:04:07;;;;;;;8.53;7.67;;;10.40;99.90;;;;;;6265439;22;20215;-86
2021/09/01 03:06:33;;;;;;;9.73;7.70;;;10.50;99.90;;;;;;6264988;22;20484;-86
2021/09/01 03:08:59;;;;;;;10.13;8.27;;;10.70;99.90;;;;;;6237699;22;20588;-86
2021/09/01 03:11:24;;;;;;;19.60;8.33;;;10.80;99.90;;;;;;6264978;22;20150;-86
2021/09/01 03:13:50;;;;;;;15.10;8.87;;;10.70;99.90;;;;;;6265954;22;20604;-86
2021/09/01 03:16:16;;;;;;;8.67;7.30;;;10.70;99.90;;;;;;6236820;22;20162;-86
2021/09/01 03:18:41;;;;;;;9.80;8.13;;;10.60;99.90;;;;;;6261374;22;20161;-86
2021/09/01 03:21:09;;;;;;;9.93;8.47;;;10.50;99.90;;;;;;6234694;23;20147;-86
2021/09/01 03:23:35;;;;;;;10.00;8.40;;;10.50;99.90;;;;;;6208149;23;20167;-87
2021/09/01 03:26:01;;;;;;;9.00;7.83;;;10.50;99.90;;;;;;6235057;23;20703;-86
2021/09/01 03:28:26;;;;;;;28.73;10.47;;;10.50;99.90;;;;;;6234012;23;20154;-86
2021/09/01 03:30:52;;;;;;;11.47;9.50;;;10.30;99.90;;;;;;6235669;23;20620;-86
2021/09/01 03:33:18;;;;;;;10.20;8.40;;;10.40;99.90;;;;;;6234719;23;20586;-86
2021/09/01 03:35:44;;;;;;;10.17;8.23;;;10.40;99.90;;;;;;6205431;23;20475;-86
2021/09/01 03:38:09;;;;;;;27.27;9.80;;;10.40;99.90;;;;;;6206035;23;20621;-86
2021/09/01 03:40:35;;;;;;;16.93;10.10;;;10.40;99.90;;;;;;6207317;23;20589;-86
2021/09/01 03:43:01;;;;;;;20.03;8.80;;;10.20;99.90;;;;;;6234916;23;20250;-87
2021/09/01 03:45:26;;;;;;;14.30;8.57;;;10.20;99.90;;;;;;6234335;23;20151;-87
2021/09/01 03:47:54;;;;;;;9.60;8.60;;;10.30;99.90;;;;;;6230310;23;20590;-87
2021/09/01 03:50:20;;;;;;;27.83;9.00;;;10.40;99.90;;;;;;6207227;23;20166;-87
2021/09/01 03:52:46;;;;;;;9.57;7.60;;;10.40;99.90;;;;;;6206157;23;20382;-87
2021/09/01 03:55:12;;;;;;;8.87;7.37;;;10.50;99.90;;;;;;6232064;23;20154;-87
2021/09/01 03:57:38;;;;;;;14.40;7.80;;;10.50;99.90;;;;;;6234737;23;20190;-86
2021/09/01 04:00:08;;;;;;;11.40;8.40;;;10.40;99.90;;;;;;6233818;23;20155;-86
2021/09/01 04:02:34;;;;;;;36.03;10.20;;;10.40;99.90;;;;;;6230837;23;20867;-86
2021/09/01 04:05:00;;;;;;;57.20;11.67;;;10.40;99.90;;;;;;6205262;23;20432;-86
2021/09/01 04:07:25;;;;;;;42.37;12.43;;;10.20;99.90;;;;;;6232446;23;20721;-87
2021/09/01 04:09:51;;;;;;;32.17;11.17;;;10.10;99.90;;;;;;6232805;23;20266;-86
2021/09/01 04:12:17;;;;;;;10.90;9.10;;;10.10;99.90;;;;;;6231506;23;20618;-86
2021/09/01 04:14:43;;;;;;;14.93;10.03;;;10.10;99.90;;;;;;6231865;23;20161;-86
2021/09/01 04:17:08;;;;;;;13.80;9.67;;;10.10;99.90;;;;;;6232612;23;20606;-86
2021/09/01 04:19:36;;;;;;;15.00;8.93;;;10.20;99.90;;;;;;6233055;22;20677;-86
2021/09/01 04:22:03;;;;;;;10.90;8.43;;;10.10;99.90;;;;;;6206046;23;20555;-86
2021/09/01 04:24:28;;;;;;;9.10;7.97;;;10.10;99.90;;;;;;6231817;23;20429;-87
2021/09/01 04:26:54;;;;;;;12.83;7.70;;;10.20;99.90;;;;;;6234010;23;20382;-87
2021/09/01 04:29:20;;;;;;;16.93;7.93;;;10.20;99.90;;;;;;6232775;23;20162;-86
2021/09/01 04:31:46;;;;;;;8.43;7.07;;;10.20;99.90;;;;;;6206481;23;20162;-86
2021/09/01 04:34:11;;;;;;;22.27;8.07;;;10.20;99.90;;;;;;6233205;23;20397;-86
2021/09/01 04:36:37;;;;;;;8.83;7.50;;;10.10;99.90;;;;;;6232922;23;20215;-87
2021/09/01 04:39:03;;;;;;;20.30;8.50;;;10.00;99.90;;;;;;6233864;23;20416;-87
2021/09/01 04:41:28;;;;;;;27.13;9.67;;;10.00;99.90;;;;;;6234267;23;20162;-87
2021/09/01 04:43:54;;;;;;;17.13;8.23;;;9.80;99.90;;;;;;6233477;23;20151;-87
2021/09/01 04:46:20;;;;;;;8.23;7.33;;;9.80;99.90;;;;;;6233989;23;20155;-86
2021/09/01 04:48:45;;;;;;;18.40;7.70;;;9.80;99.90;;;;;;6233669;23;20151;-88
2021/09/01 04:51:11;;;;;;;9.43;5.93;;;9.90;99.90;;;;;;6207395;23;20163;-86
2021/09/01 04:53:37;;;;;;;16.50;6.90;;;10.00;99.90;;;;;;6234651;23;20158;-86
2021/09/01 04:56:02;;;;;;;12.80;7.83;;;10.10;99.90;;;;;;6234428;23;20178;-87
2021/09/01 04:58:28;;;;;;;15.83;8.10;;;10.10;99.90;;;;;;6235041;23;20269;-87
2021/09/01 05:00:54;;;;;;;25.80;8.67;;;10.30;99.90;;;;;;6232494;23;20159;-88
2021/09/01 05:03:19;;;;;;;21.83;8.00;;;10.20;99.90;;;;;;6231890;23;20530;-87
2021/09/01 05:05:45;;;;;;;15.77;7.30;;;10.10;99.90;;;;;;6205511;23;20221;-87
2021/09/01 05:08:11;;;;;;;9.00;6.57;;;10.20;99.90;;;;;;6233175;23;20517;-88
2021/09/01 05:10:37;;;;;;;11.30;7.07;;;10.20;99.90;;;;;;6201931;23;20171;-87
2021/09/01 05:13:03;;;;;;;20.23;6.37;;;10.40;99.90;;;;;;6232226;23;20760;-87
2021/09/01 05:15:28;;;;;;;21.23;6.50;;;10.50;99.90;;;;;;6204134;23;20167;-90
2021/09/01 05:17:54;;;;;;;8.53;6.60;;;10.50;99.90;;;;;;6232974;23;20193;-92
2021/09/01 05:20:23;;;;;;;47.23;8.53;;;10.50;99.90;;;;;;6231174;23;20194;-90
2021/09/01 05:22:54;;;;;;;31.73;7.97;;;10.50;99.90;;;;;;6230268;23;20242;-89
2021/09/01 05:25:20;;;;;;;7.23;6.30;;;10.50;99.90;;;;;;6230738;23;20389;-88
2021/09/01 05:27:50;;;;;;;9.53;6.40;;;10.50;99.90;;;;;;6204036;23;20915;-88
2021/09/01 05:30:18;;;;;;;8.50;6.03;;;10.50;99.90;;;;;;6230297;23;20808;-89
2021/09/01 05:32:47;;;;;;;14.93;6.33;;;10.60;99.90;;;;;;6205259;23;20405;-88
2021/09/01 05:35:13;;;;;;;13.50;6.50;;;10.70;99.90;;;;;;6205037;23;20862;-88
2021/09/01 05:37:41;;;;;;;6.87;6.27;;;10.70;99.90;;;;;;6200051;23;20787;-88
2021/09/01 05:40:09;;;;;;;10.00;6.80;;;10.70;99.90;;;;;;6203680;23;20401;-88
2021/09/01 05:42:35;;;;;;;14.43;7.90;;;10.70;99.90;;;;;;6204879;23;20504;-89
2021/09/01 05:45:03;;;;;;;13.80;8.27;;;10.80;99.90;;;;;;6204244;23;20920;-88
2021/09/01 05:47:29;;;;;;;12.20;7.80;;;10.80;99.90;;;;;;6204263;23;20166;-88
2021/09/01 05:49:57;;;;;;;15.73;7.83;;;10.80;99.90;;;;;;6204561;23;20419;-90
2021/09/01 05:52:27;;;;;;;6.63;6.03;;;10.80;99.90;;;;;;6205201;23;20867;-92
2021/09/01 05:54:55;;;;;;;10.83;7.53;;;10.90;99.90;;;;;;6204883;23;20722;-88
2021/09/01 05:57:33;;;;;;;7.03;6.37;;;11.10;99.90;;;;;;6205398;23;20437;-88
2021/09/01 06:00:13;;;;;;;7.90;7.10;;;11.20;99.90;;;;;;6203492;23;20398;-91
2021/09/01 06:03:35;;;;;;;7.23;6.53;;;11.50;99.90;;;;;;6205455;23;20401;-90
2021/09/01 06:06:03;;;;;;;6.90;6.20;;;11.80;99.90;;;;;;6205024;23;20437;-91
2021/09/01 06:09:10;;;;;;;8.10;6.13;;;11.90;99.90;;;;;;6203456;23;20398;-92
2021/09/01 06:11:37;;;;;;;7.50;6.80;;;12.00;99.90;;;;;;6188079;23;20863;-90
2021/09/01 06:14:21;;;;;;;10.77;6.50;;;11.90;99.90;;;;;;6204529;23;20420;-91
2021/09/01 06:16:52;;;;;;;10.97;7.07;;;11.70;99.90;;;;;;6202511;23;20757;-91
2021/09/01 06:20:04;;;;;;;13.47;8.73;;;11.50;99.90;;;;;;6202968;22;20432;-92
2021/09/01 06:22:30;;;;;;;11.47;8.23;;;11.70;99.90;;;;;;6203919;23;20461;-93
2021/09/01 06:25:29;;;;;;;14.47;8.03;;;11.80;99.90;;;;;;6203797;23;20890;-91
2021/09/01 06:27:55;;;;;;;13.17;8.30;;;11.70;99.90;;;;;;6230086;23;20212;-91
2021/09/01 06:30:21;;;;;;;10.83;6.80;;;11.90;99.90;;;;;;6231592;23;20374;-91
2021/09/01 06:35:49;;;;;;;16.80;8.60;;;12.30;99.90;;;;;;6168772;23;20470;-90
2021/09/01 06:38:20;;;;;;;27.30;10.47;;;12.40;99.90;;;;;;6229609;23;20437;-90
2021/09/01 06:40:51;;;;;;;15.20;8.50;;;12.60;99.90;;;;;;6202426;23;20401;-90
2021/09/01 06:43:17;;;;;;;35.73;11.37;;;12.50;99.90;;;;;;6230456;23;20390;-90
2021/09/01 06:45:51;;;;;;;19.50;10.50;;;12.50;99.90;;;;;;6230742;23;20385;-92
2021/09/01 06:48:20;;;;;;;15.17;9.70;;;12.50;99.90;;;;;;6203896;23;20202;-90
2021/09/01 06:51:02;;;;;;;;;;;;;;;;;;;;;
2021/09/01 06:53:35;;;;;;;18.40;11.30;;;12.70;99.90;;;;;;6230977;23;20945;-90
2021/09/01 06:56:01;;;;;;;23.63;10.73;;;12.80;99.90;;;;;;6231296;23;20441;-90
2021/09/01 06:58:44;;;;;;;18.73;10.57;;;13.00;99.90;;;;;;6204446;23;20816;-93
2021/09/01 07:02:09;;;;;;;25.07;11.20;;;12.80;99.90;;;;;;6230895;23;20541;-91
2021/09/01 07:40:49;;;;;;;20.77;12.90;;;12.70;99.90;;;;;;6263165;22;20917;-91
2021/09/01 07:43:26;;;;;;;33.97;14.47;;;12.90;99.90;;;;;;6235197;22;20401;-92
2021/09/01 07:46:06;;;;;;;21.20;14.07;;;13.10;99.90;;;;;;6240170;22;20162;-94
2021/09/01 07:48:31;;;;;;;21.50;12.07;;;13.20;99.90;;;;;;6237543;22;20894;-94
2021/09/01 07:50:59;;;;;;;20.77;13.33;;;13.50;99.90;;;;;;6236166;22;20172;-94
2021/09/01 07:53:30;;;;;;;29.73;12.90;;;13.90;99.90;;;;;;6263890;22;20155;-94
2021/09/01 07:55:56;;;;;;;19.43;11.77;;;14.10;99.90;;;;;;6235523;22;20404;-95
2021/09/01 07:58:26;;;;;;;26.13;13.83;;;14.30;99.90;;;;;;6235056;22;20441;-93
2021/09/01 08:00:55;;;;;;;15.90;11.70;;;14.30;99.90;;;;;;6256432;22;20554;-92
2021/09/01 08:03:32;;;;;;;19.60;12.53;;;14.20;99.90;;;;;;6234002;22;20483;-93
2021/09/01 08:05:57;;;;;;;15.07;11.53;;;14.40;99.90;;;;;;6235315;22;20479;-94
2021/09/01 08:08:23;;;;;;;18.23;11.73;;;14.60;99.90;;;;;;6234510;22;20447;-93
2021/09/01 08:10:52;;;;;;;13.60;10.70;;;14.70;99.90;;;;;;6233309;22;20605;-93
2021/09/01 08:15:52;;;;;;;16.70;11.70;;;14.90;99.90;;;;;;6264117;22;20896;-93
2021/09/01 08:18:19;;;;;;;14.70;11.20;;;15.10;99.90;;;;;;6235726;22;20440;-93
2021/09/01 08:20:48;;;;;;;16.63;11.57;;;15.40;99.90;;;;;;6209968;22;20254;-94
2021/09/01 08:23:13;;;;;;;15.17;11.33;;;15.50;99.90;;;;;;6232469;22;20398;-94
2021/09/01 08:25:40;;;;;;;16.50;11.90;;;15.50;99.90;;;;;;6233892;22;20859;-93
2021/09/01 08:28:15;;;;;;;16.40;11.70;;;14.90;99.90;;;;;;6234772;22;20300;-93
2021/09/01 08:30:42;;;;;;;12.90;11.13;;;14.80;99.90;;;;;;6210667;22;20405;-93
2021/09/01 08:33:08;;;;;;;15.77;12.90;;;14.90;99.90;;;;;;6189050;22;20403;-94
2021/09/01 08:35:34;;;;;;;15.73;12.90;;;15.10;99.90;;;;;;6235144;22;20856;-92
2021/09/01 08:38:03;;;;;;;14.33;12.77;;;15.20;99.90;;;;;;6233425;22;20246;-92
2021/09/01 08:40:32;;;;;;;16.23;13.70;;;15.30;99.90;;;;;;6260316;22;20252;-93
2021/09/01 08:42:58;;;;;;;14.07;12.47;;;15.20;99.90;;;;;;6234631;22;20408;-92
2021/09/01 08:45:26;;;;;;;16.27;13.33;;;15.50;99.90;;;;;;6234927;22;20463;-92
2021/09/01 08:47:55;;;;;;;15.10;12.20;;;15.80;99.90;;;;;;6235337;22;20901;-93
2021/09/01 08:50:21;;;;;;;17.40;12.80;;;15.90;99.90;;;;;;6235210;22;20457;-92
2021/09/01 08:52:47;;;;;;;15.10;13.17;;;16.00;99.90;;;;;;6236669;22;20397;-94
2021/09/01 08:55:16;;;;;;;14.43;12.93;;;16.40;99.90;;;;;;6240265;22;20400;-93
2021/09/01 08:57:42;;;;;;;13.67;12.13;;;16.40;99.90;;;;;;6240073;22;20198;-92
2021/09/01 09:00:12;;;;;;;16.43;14.60;;;16.20;99.90;;;;;;6240929;22;20433;-93
2021/09/01 09:02:58;;;;;;;14.57;12.87;;;15.90;99.90;;;;;;6239365;22;20751;-92
2021/09/01 09:05:38;;;;;;;13.77;12.37;;;15.70;99.90;;;;;;6262474;22;20422;-92
2021/09/01 09:08:07;;;;;;;16.87;14.33;;;15.80;99.90;;;;;;6237521;22;20799;-93
2021/09/01 09:10:35;;;;;;;14.23;12.83;;;16.30;99.90;;;;;;6236603;22;20393;-93
2021/09/01 09:13:21;;;;;;;14.83;12.60;;;16.50;99.90;;;;;;6236931;22;20871;-93
2021/09/01 09:16:09;;;;;;;15.73;13.40;;;16.60;99.90;;;;;;6238242;22;20712;-93
2021/09/01 09:18:37;;;;;;;13.33;11.33;;;16.70;99.90;;;;;;6239390;22;20454;-94
2021/09/01 09:21:22;;;;;;;12.03;10.93;;;17.00;99.90;;;;;;6237454;22;20937;-93
2021/09/01 09:23:50;;;;;;;11.80;10.60;;;17.30;99.90;;;;;;6237611;22;20392;-92
2021/09/01 09:26:21;;;;;;;11.37;10.27;;;17.30;99.90;;;;;;6236183;22;20722;-93
2021/09/01 09:29:10;;;;;;;11.93;10.73;;;17.30;99.90;;;;;;6236787;22;20407;-93
2021/09/01 09:31:37;;;;;;;11.30;10.20;;;17.40;99.90;;;;;;6237917;22;20491;-94
2021/09/01 09:34:05;;;;;;;12.57;11.27;;;17.60;99.90;;;;;;6237633;22;20419;-93
2021/09/01 09:36:35;;;;;;;12.90;11.10;;;17.60;99.90;;;;;;6237314;22;20511;-94
2021/09/01 09:39:02;;;;;;;13.00;11.53;;;17.80;99.90;;;;;;6262457;22;20759;-94
2021/09/01 09:41:28;;;;;;;13.00;11.70;;;17.90;99.90;;;;;;6237157;22;20393;-93
2021/09/01 09:44:12;;;;;;;14.00;12.57;;;18.10;99.90;;;;;;6237171;22;20492;-94
2021/09/01 09:46:48;;;;;;;14.03;12.40;;;18.20;99.90;;;;;;6264385;22;20381;-94
2021/09/01 09:49:14;;;;;;;15.77;11.70;;;18.30;99.90;;;;;;6236307;22;20401;-93
2021/09/01 09:51:43;;;;;;;11.90;10.70;;;18.40;99.90;;;;;;6236426;22;20947;-93
2021/09/01 09:57:52;;;;;;;10.73;9.63;;;18.90;99.90;;;;;;6208200;22;20444;-93
2021/09/01 10:03:20;;;;;;;10.33;9.43;;;19.20;99.90;;;;;;6245335;22;20412;-92
2021/09/01 10:06:03;;;;;;;9.07;8.17;;;19.20;99.90;;;;;;6243892;22;20476;-93
2021/09/01 10:08:31;;;;;;;10.73;8.70;;;19.50;99.90;;;;;;6237009;22;20393;-93
2021/09/01 10:11:28;;;;;;;8.23;7.47;;;19.60;99.90;;;;;;6214310;22;20397;-93
2021/09/01 10:13:54;;;;;;;8.70;7.90;;;20.00;99.90;;;;;;6234793;22;20492;-93
2021/09/01 10:16:37;;;;;;;10.23;8.10;;;20.00;99.90;;;;;;6210371;22;20416;-93
2021/09/01 10:19:26;;;;;;;8.20;6.70;;;20.30;99.90;;;;;;6260904;22;20597;-93
2021/09/01 10:25:51;;;;;;;6.33;5.50;;;20.50;99.90;;;;;;6247705;22;20395;-92
2021/09/01 10:29:03;;;;;;;6.80;6.20;;;20.70;99.90;;;;;;6271567;22;20721;-94
2021/09/01 10:31:35;;;;;;;6.67;6.10;;;20.90;99.90;;;;;;6224088;22;20396;-93
2021/09/01 10:37:43;;;;;;;6.63;6.03;;;21.00;99.90;;;;;;6242375;22;20445;-93
2021/09/01 10:40:52;;;;;;;5.87;5.37;;;20.80;99.90;;;;;;6259759;22;20420;-92
2021/09/01 10:43:48;;;;;;;5.63;5.13;;;21.30;99.90;;;;;;6296809;22;20376;-91
2021/09/01 10:47:40;;;;;;;6.20;5.70;;;21.60;99.80;;;;;;6305397;22;20421;-93
2021/09/01 10:50:00;;;;;;;5.97;5.47;;;21.90;99.90;;;;;;6171832;23;20700;-93
2021/09/01 10:52:46;;;;;;;8.00;5.53;;;22.00;99.90;;;;;;6144098;23;20399;-93
2021/09/01 10:56:08;;;;;;;7.03;5.87;;;21.70;99.90;;;;;;6273876;22;20392;-96
2021/09/01 10:58:41;;;;;;;6.00;5.40;;;21.70;99.40;;;;;;6296623;22;20466;-95
2021/09/01 11:01:19;;;;;;;6.50;5.90;;;22.00;98.70;;;;;;6274155;22;20402;-95
2021/09/01 11:55:56;;;;;;;6.10;5.60;;;24.40;96.40;;;;;;6230740;22;20449;-91
2021/09/01 11:58:22;;;;;;;6.03;5.53;;;24.40;93.70;;;;;;6222381;23;20437;-90
2021/09/01 12:00:50;;;;;;;5.90;5.40;;;23.80;96.20;;;;;;6204301;23;20405;-90
2021/09/01 12:03:17;;;;;;;5.27;4.87;;;23.50;96.00;;;;;;6204682;23;20163;-90
2021/09/01 12:05:47;;;;;;;6.70;6.10;;;23.40;95.50;;;;;;6204455;23;20571;-89
2021/09/01 12:08:21;;;;;;;5.27;4.87;;;23.40;96.00;;;;;;6204374;23;20730;-91
2021/09/01 12:10:50;;;;;;;4.90;4.50;;;23.80;95.30;;;;;;6204457;23;20424;-89
2021/09/01 12:13:18;;;;;;;5.47;5.07;;;24.30;94.30;;;;;;6202517;23;20768;-90
2021/09/01 12:16:08;;;;;;;5.13;4.70;;;23.90;92.80;;;;;;6203727;23;20449;-88
2021/09/01 12:18:55;;;;;;;4.77;4.37;;;23.40;93.80;;;;;;6229830;23;20437;-90
2021/09/01 12:21:27;;;;;;;4.93;4.53;;;23.10;94.30;;;;;;6229786;23;20425;-89
2021/09/01 12:24:16;;;;;;;4.77;4.37;;;22.90;96.20;;;;;;6196560;23;20405;-89
2021/09/01 12:26:54;;;;;;;5.47;5.07;;;23.70;95.60;;;;;;6199775;23;20397;-93
2021/09/01 12:29:57;;;;;;;4.53;4.13;;;23.80;93.70;;;;;;6219512;23;20899;-92
2021/09/01 12:32:23;;;;;;;4.70;4.30;;;24.30;94.50;;;;;;6203439;23;20440;-93
2021/09/01 12:34:55;;;;;;;4.87;4.53;;;24.60;92.90;;;;;;6203465;23;20398;-92
2021/09/01 12:37:24;;;;;;;5.23;4.73;;;24.50;92.20;;;;;;6202146;23;20491;-92
2021/09/01 12:40:12;;;;;;;4.73;4.30;;;24.00;92.10;;;;;;6201125;23;20457;-92
2021/09/01 12:42:47;;;;;;;5.37;4.93;;;23.10;92.20;;;;;;6229258;23;20794;-92
2021/09/01 12:45:25;;;;;;;5.30;4.90;;;22.30;93.50;;;;;;6227777;23;20429;-93
2021/09/01 12:48:10;;;;;;;5.13;4.73;;;22.30;96.40;;;;;;6176862;23;20409;-92
2021/09/01 12:50:45;;;;;;;4.60;4.20;;;23.00;96.10;;;;;;6202563;23;20397;-92
2021/09/01 12:53:21;;;;;;;4.37;3.97;;;23.60;94.10;;;;;;6202707;23;20472;-92
2021/09/01 12:55:53;;;;;;;5.33;4.93;;;24.20;93.40;;;;;;6203500;23;20459;-92
2021/09/01 12:58:36;;;;;;;5.27;4.87;;;24.50;92.80;;;;;;6228595;23;20452;-92
2021/09/01 13:01:06;;;;;;;5.27;4.50;;;24.70;93.40;;;;;;6204249;23;20727;-93
2021/09/01 13:03:32;;;;;;;5.53;5.03;;;25.40;91.90;;;;;;6202608;23;20398;-93
2021/09/01 13:06:23;;;;;;;4.77;4.37;;;25.40;90.80;;;;;;6198345;23;20776;-92
2021/09/01 13:08:54;;;;;;;4.47;4.10;;;25.60;92.40;;;;;;6197891;23;20406;-92
2021/09/01 13:11:20;;;;;;;6.20;4.80;;;25.40;90.40;;;;;;6202706;23;20481;-92
2021/09/01 13:13:46;;;;;;;5.03;4.53;;;25.40;92.20;;;;;;6202460;23;20943;-92
2021/09/01 13:16:11;;;;;;;4.80;4.40;;;26.00;91.60;;;;;;6203133;23;20388;-92
2021/09/01 13:18:37;;;;;;;4.67;4.37;;;25.10;90.40;;;;;;6201965;23;20528;-93
2021/09/01 13:21:03;;;;;;;4.70;4.40;;;24.20;91.50;;;;;;6201460;23;20221;-93
2021/09/01 13:23:28;;;;;;;5.23;4.67;;;23.00;92.00;;;;;;6205175;23;20171;-92
2021/09/01 13:25:55;;;;;;;6.67;4.37;;;22.50;93.50;;;;;;6202438;23;20195;-93
2021/09/01 13:28:21;;;;;;;4.80;4.37;;;22.60;93.30;;;;;;6202365;23;20167;-90
2021/09/01 13:30:47;;;;;;;4.53;4.20;;;23.20;94.30;;;;;;6199885;23;20413;-93
2021/09/01 13:33:12;;;;;;;5.00;4.60;;;24.00;94.80;;;;;;6201228;23;20163;-92
2021/09/01 13:35:38;;;;;;;5.33;4.73;;;24.30;92.50;;;;;;6201860;23;20603;-93
2021/09/01 13:38:04;;;;;;;5.03;4.53;;;24.20;92.30;;;;;;6202425;23;20317;-91
2021/09/01 13:40:30;;;;;;;4.80;4.40;;;23.70;92.00;;;;;;6203865;23;20190;-93
2021/09/01 13:42:55;;;;;;;5.30;4.87;;;23.40;92.20;;;;;;6203166;23;20453;-93
2021/09/01 13:45:21;;;;;;;5.13;3.90;;;23.20;93.20;;;;;;6203687;23;20556;-92
2021/09/01 13:47:47;;;;;;;5.13;4.73;;;23.90;93.70;;;;;;6203324;23;20476;-93
2021/09/01 13:50:12;;;;;;;4.33;3.93;;;24.30;90.40;;;;;;6205242;23;20246;-93
2021/09/01 13:52:38;;;;;;;3.90;3.60;;;24.80;90.10;;;;;;6204435;23;20167;-93
2021/09/01 13:55:05;;;;;;;4.10;3.80;;;25.50;88.20;;;;;;6225824;22;20393;-94
2021/09/01 13:57:31;;;;;;;4.57;4.27;;;26.40;87.00;;;;;;6231274;22;20236;-93
2021/09/01 13:59:57;;;;;;;4.50;4.10;;;28.10;83.10;;;;;;6258707;22;20511;-93
2021/09/01 14:02:23;;;;;;;6.20;4.30;;;28.50;78.40;;;;;;6259680;22;20161;-94
2021/09/01 14:04:48;;;;;;;4.23;3.83;;;28.70;78.20;;;;;;6259677;22;20404;-93
2021/09/01 14:07:14;;;;;;;4.47;4.00;;;29.00;74.70;;;;;;6258953;22;20259;-92
2021/09/01 14:09:41;;;;;;;4.13;3.83;;;28.60;75.50;;;;;;6258901;22;20905;-93
2021/09/01 14:12:08;;;;;;;4.30;4.00;;;26.80;78.30;;;;;;6259509;22;20162;-93
2021/09/01 14:14:34;;;;;;;4.77;4.37;;;25.00;84.30;;;;;;6233979;22;20725;-93
2021/09/01 14:17:00;;;;;;;4.47;4.10;;;23.30;86.10;;;;;;6258900;22;20507;-94
2021/09/01 14:19:25;;;;;;;4.30;3.90;;;22.60;90.10;;;;;;6259340;22;20254;-92
2021/09/01 14:22:11;;;;;;;4.30;3.90;;;22.10;90.70;;;;;;6258570;22;20190;-95
2021/09/01 14:24:37;;;;;;;5.00;4.50;;;21.60;91.20;;;;;;6231742;22;20166;-92
2021/09/01 14:27:03;;;;;;;3.87;3.57;;;21.60;91.00;;;;;;6259791;22;20738;-94
2021/09/01 14:29:29;;;;;;;4.10;3.80;;;22.30;91.10;;;;;;6231278;22;20158;-93
2021/09/01 14:34:49;;;;;;;4.57;4.17;;;23.70;89.60;;;;;;6216766;22;20207;-92
2021/09/01 14:47:31;;;;;;;4.73;4.33;;;24.40;85.90;;;;;;6263998;22;20886;-88
2021/09/01 14:50:05;;;;;;;4.43;4.13;;;24.40;87.60;;;;;;6234643;22;20776;-87
2021/09/01 14:52:31;;;;;;;4.67;4.27;;;24.60;82.80;;;;;;6260370;22;20436;-86
2021/09/01 14:54:59;;;;;;;4.67;4.20;;;24.90;83.60;;;;;;6234898;22;20858;-87
2021/09/01 14:57:24;;;;;;;4.57;4.13;;;25.40;85.60;;;;;;6207812;22;20240;-85
2021/09/01 14:59:50;;;;;;;4.03;3.73;;;25.30;85.10;;;;;;6233675;22;20806;-88